Time;durP1;ratioP1;P1;durP2;ratioP2;P2;SDS_P1;SDS_P2;PMS_P1;PMS_P2;Temp;Humidity;BMP_temperature;BMP_pressure;BME280_temperature;BME280_humidity;BME280_pressure;Samples;Min_cycle;Max_cycle;Signal;HPM_P1;HPM_P2
2021/09/16 00:01:45;;;;;;;12.93;7.50;;;;;;;13.15;70.06;145487.80;1890009;76;22136;-58
2021/09/16 00:04:19;;;;;;;13.48;8.03;;;;;;;13.13;69.78;145481.52;1870674;76;22133;-61
2021/09/16 00:07:14;;;;;;;14.93;7.83;;;;;;;13.11;69.82;145476.47;1870381;76;22177;-58
2021/09/16 00:09:51;;;;;;;16.57;6.70;;;;;;;13.06;69.78;145465.16;1870426;76;22143;-64
2021/09/16 00:12:26;;;;;;;12.70;7.22;;;;;;;13.02;69.86;145455.08;1854726;76;27933;-58
2021/09/16 00:15:02;;;;;;;13.13;6.47;;;;;;;13.03;69.69;145458.87;1870689;76;22539;-58
2021/09/16 00:17:37;;;;;;;13.40;7.12;;;;;;;13.01;69.70;145452.59;1870689;76;22116;-64
2021/09/16 00:20:33;;;;;;;12.18;6.62;;;;;;;13.01;69.64;145452.59;1870626;76;22113;-61
2021/09/16 00:23:09;;;;;;;12.13;6.65;;;;;;;12.98;69.17;145445.06;1889900;76;22180;-62
2021/09/16 00:25:44;;;;;;;12.82;6.58;;;;;;;12.97;69.14;145443.77;1889938;76;22163;-61
2021/09/16 00:28:19;;;;;;;12.80;5.97;;;;;;;12.94;69.01;145434.98;1870667;76;22133;-57
2021/09/16 00:30:53;;;;;;;11.12;5.62;;;;;;;12.89;69.33;145422.42;1890282;76;22549;-63
2021/09/16 00:33:28;;;;;;;12.73;7.20;;;;;;;12.81;69.48;145404.83;1889951;76;22128;-64
2021/09/16 00:36:04;;;;;;;15.43;8.65;;;;;;;12.75;69.34;145388.53;1889975;76;22146;-61
2021/09/16 00:38:39;;;;;;;14.83;8.55;;;;;;;12.71;69.39;145379.69;1870524;76;22574;-63
2021/09/16 00:41:16;;;;;;;14.53;8.80;;;;;;;12.65;69.64;145364.64;1889954;76;22156;-59
2021/09/16 00:43:51;;;;;;;17.92;8.25;;;;;;;12.60;69.99;145352.08;1890075;76;22579;-59
2021/09/16 00:46:26;;;;;;;15.10;9.03;;;;;;;12.53;70.21;145335.72;1889967;76;22163;-58
2021/09/16 00:49:03;;;;;;;15.83;7.37;;;;;;;12.49;70.44;145324.41;1870665;76;22125;-60
2021/09/16 00:51:39;;;;;;;16.00;8.75;;;;;;;12.45;70.41;145314.39;1870811;76;22164;-62
2021/09/16 00:54:18;;;;;;;18.17;8.85;;;;;;;12.43;70.78;145309.36;1889955;76;22140;-58
2021/09/16 00:56:53;;;;;;;15.93;9.20;;;;;;;12.41;71.06;145304.33;1870860;76;22144;-56
2021/09/16 00:59:29;;;;;;;13.62;7.87;;;;;;;12.40;71.46;145301.83;1889946;76;22117;-59
2021/09/16 01:02:23;;;;;;;14.45;8.65;;;;;;;12.37;71.56;145296.80;1870662;76;22145;-60
2021/09/16 01:04:58;;;;;;;13.28;8.03;;;;;;;12.31;71.62;145281.75;1870701;76;22112;-60
2021/09/16 01:07:40;;;;;;;13.18;6.95;;;;;;;12.30;71.56;145279.20;1869972;76;22156;-57
2021/09/16 01:10:34;;;;;;;10.65;6.05;;;;;;;12.28;71.39;145274.17;1870631;76;22137;-60
2021/09/16 01:13:10;;;;;;;12.70;6.53;;;;;;;12.26;71.15;145267.89;1870698;76;22148;-60
2021/09/16 01:15:46;;;;;;;13.40;7.62;;;;;;;12.24;71.37;145264.16;1870678;76;22140;-61
2021/09/16 01:18:21;;;;;;;12.53;7.78;;;;;;;12.22;71.76;145257.87;1854774;76;27953;-63
2021/09/16 01:21:15;;;;;;;12.20;5.72;;;;;;;12.24;71.66;145264.16;1873352;75;22611;-61
2021/09/16 01:24:09;;;;;;;16.25;7.90;;;;;;;12.22;71.67;145257.87;1870626;76;22152;-61
2021/09/16 01:26:46;;;;;;;11.00;6.47;;;;;;;12.22;71.42;145259.13;1889989;76;22132;-60
2021/09/16 01:29:21;;;;;;;9.65;5.67;;;;;;;12.24;71.34;145264.16;1870737;76;20450;-62
2021/09/16 01:32:01;;;;;;;12.73;5.37;;;;;;;12.24;70.90;145264.16;1890016;76;22132;-59
2021/09/16 01:34:36;;;;;;;12.40;5.92;;;;;;;12.26;70.45;145269.19;1870790;76;22141;-61
2021/09/16 01:37:13;;;;;;;8.65;5.40;;;;;;;12.25;70.00;145265.41;1870472;76;22181;-61
2021/09/16 01:39:48;;;;;;;9.58;4.65;;;;;;;12.25;69.32;145266.66;1870616;76;22185;-57
2021/09/16 01:42:23;;;;;;;11.68;5.17;;;;;;;12.24;68.13;145264.16;1870729;76;22156;-59
2021/09/16 01:44:58;;;;;;;10.25;5.30;;;;;;;12.23;68.19;145261.63;1870667;76;22168;-61
2021/09/16 01:47:33;;;;;;;12.37;6.40;;;;;;;12.21;68.31;145256.58;1890000;76;22156;-62
2021/09/16 01:50:29;;;;;;;8.60;5.28;;;;;;;12.18;68.34;145249.06;1870537;76;22185;-61
2021/09/16 01:53:22;;;;;;;11.68;5.70;;;;;;;12.14;68.51;145239.03;1870744;76;22129;-59
2021/09/16 01:55:57;;;;;;;9.33;5.65;;;;;;;12.13;69.06;145237.75;1890059;76;22144;-58
2021/09/16 01:58:32;;;;;;;11.53;6.12;;;;;;;12.09;69.34;145226.48;1870781;76;22271;-58
2021/09/16 02:01:26;;;;;;;12.45;5.55;;;;;;;12.09;69.47;145227.72;1889897;76;22546;-62
2021/09/16 02:04:01;;;;;;;10.53;5.87;;;;;;;12.06;69.76;145218.91;1870665;76;22527;-61
2021/09/16 02:06:37;;;;;;;10.03;6.12;;;;;;;12.03;70.16;145212.64;1870565;76;22160;-61
2021/09/16 02:09:13;;;;;;;10.00;5.70;;;;;;;12.05;70.58;145216.42;1870407;76;22152;-58
2021/09/16 02:11:48;;;;;;;13.08;5.45;;;;;;;12.06;70.92;145218.91;1870693;76;22112;-58
2021/09/16 02:14:23;;;;;;;10.23;5.80;;;;;;;12.07;71.23;145222.70;1870677;76;22548;-60
2021/09/16 02:17:16;;;;;;;10.30;6.25;;;;;;;12.10;71.66;145228.97;1870949;76;22105;-59
2021/09/16 02:20:12;;;;;;;12.13;6.40;;;;;;;12.13;72.27;145237.75;1889972;76;22542;-57
2021/09/16 02:22:46;;;;;;;11.60;6.45;;;;;;;12.12;72.70;145234.00;1870670;76;22125;-60
2021/09/16 02:25:23;;;;;;;10.25;5.95;;;;;;;12.12;73.60;145235.25;1870463;76;22172;-59
2021/09/16 02:28:17;;;;;;;13.88;7.10;;;;;;;12.15;74.89;145241.53;1870667;76;22129;-62
2021/09/16 02:30:52;;;;;;;12.13;7.60;;;;;;;12.19;75.39;145250.31;1889989;76;22136;-62
2021/09/16 02:33:27;;;;;;;13.98;9.25;;;;;;;12.18;74.64;145247.81;1889938;76;22112;-56
2021/09/16 02:36:02;;;;;;;19.57;8.90;;;;;;;12.16;74.09;145244.03;1870683;76;22559;-64
2021/09/16 02:38:37;;;;;;;15.72;9.43;;;;;;;12.15;74.25;145241.53;1854711;76;27939;-60
2021/09/16 02:41:18;;;;;;;14.50;9.33;;;;;;;12.19;73.87;145250.31;1889942;76;22184;-61
2021/09/16 02:44:14;;;;;;;15.50;8.03;;;;;;;12.13;73.83;145237.75;1854504;76;28335;-61
2021/09/16 02:46:48;;;;;;;14.07;7.75;;;;;;;12.18;73.50;145249.06;1870674;76;22125;-60
2021/09/16 02:49:25;;;;;;;13.22;5.87;;;;;;;12.16;73.16;145244.03;1889952;76;22171;-64
2021/09/16 02:52:00;;;;;;;11.57;7.28;;;;;;;12.16;72.98;145244.03;1889998;76;22108;-65
2021/09/16 02:54:34;;;;;;;11.28;6.42;;;;;;;12.19;73.86;145250.31;1889947;76;22139;-67
2021/09/16 02:57:09;;;;;;;10.85;6.80;;;;;;;12.22;74.46;145259.13;1890023;76;22171;-61
2021/09/16 02:59:45;;;;;;;9.55;5.62;;;;;;;12.23;74.67;145261.63;1873894;76;27920;-62
2021/09/16 03:02:20;;;;;;;8.73;5.08;;;;;;;12.33;75.63;145286.73;1870603;76;22543;-63
2021/09/16 03:04:55;;;;;;;11.68;6.00;;;;;;;12.42;76.13;145308.11;1870747;76;22135;-58
2021/09/16 03:07:30;;;;;;;13.18;7.40;;;;;;;12.50;76.31;145328.20;1889953;76;22152;-65
2021/09/16 03:10:09;;;;;;;11.80;6.12;;;;;;;12.54;75.09;145336.97;1870672;76;22576;-60
2021/09/16 03:12:44;;;;;;;9.95;6.15;;;;;;;12.51;75.33;145329.45;1870633;76;22141;-63
2021/09/16 03:15:20;;;;;;;15.90;10.45;;;;;;;12.58;76.73;145347.05;1873883;76;28473;-57
2021/09/16 03:17:55;;;;;;;18.00;10.50;;;;;;;12.70;76.05;145377.20;1870685;76;22134;-57
2021/09/16 03:20:30;;;;;;;22.95;14.05;;;;;;;12.70;74.91;145377.20;1854692;76;27952;-63
2021/09/16 03:23:05;;;;;;;16.95;10.65;;;;;;;12.74;74.68;145387.22;1889956;76;22136;-62
2021/09/16 03:25:59;;;;;;;16.65;10.13;;;;;;;12.72;75.14;145380.94;1889978;76;22127;-61
2021/09/16 03:28:38;;;;;;;22.50;12.80;;;;;;;12.84;75.10;145411.11;1835156;77;28009;-59
2021/09/16 03:31:10;;;;;;;27.60;15.35;;;;;;;13.01;74.41;145452.59;1870833;76;22144;-63
2021/09/16 03:34:04;;;;;;;25.92;15.05;;;;;;;12.99;73.84;145447.56;1870525;76;22230;-61
2021/09/16 03:36:39;;;;;;;31.87;15.40;;;;;;;12.92;73.71;145431.20;1870566;76;22105;-61
2021/09/16 03:39:14;;;;;;;25.10;13.55;;;;;;;12.90;73.70;145426.22;1870540;76;22137;-60
2021/09/16 03:41:50;;;;;;;26.48;14.18;;;;;;;12.76;73.56;145392.27;1870440;76;22136;-59
2021/09/16 03:44:25;;;;;;;24.92;13.25;;;;;;;12.60;74.60;145352.08;1870659;76;22133;-60
2021/09/16 03:46:59;;;;;;;16.42;9.45;;;;;;;12.45;75.45;145315.64;1870670;76;22133;-61
2021/09/16 03:52:11;;;;;;;11.03;5.62;;;;;;;12.49;76.17;145324.41;1889977;76;22159;-64
2021/09/16 03:54:46;;;;;;;9.65;5.67;;;;;;;12.61;76.73;145354.56;1873899;76;27901;-62
2021/09/16 03:57:21;;;;;;;14.07;6.65;;;;;;;12.80;76.73;145402.33;1870677;76;22551;-60
2021/09/16 03:59:56;;;;;;;15.18;8.90;;;;;;;12.94;76.71;145434.98;1870658;76;22210;-61
2021/09/16 04:02:30;;;;;;;8.15;5.20;;;;;;;12.99;76.24;145447.56;1889992;76;22147;-60
2021/09/16 04:05:06;;;;;;;10.58;4.80;;;;;;;13.03;74.97;145457.63;1870666;76;22164;-62
2021/09/16 04:07:41;;;;;;;9.43;5.30;;;;;;;13.04;73.87;145460.13;1854769;76;27957;-59
2021/09/16 04:10:16;;;;;;;21.12;8.25;;;;;;;13.14;75.97;145484.00;1870644;76;22178;-59
2021/09/16 04:12:51;;;;;;;16.95;10.65;;;;;;;13.18;73.49;145494.08;1870660;76;22575;-62
2021/09/16 04:15:27;;;;;;;14.78;10.20;;;;;;;13.20;73.95;145499.06;1854611;76;28450;-62
2021/09/16 04:18:01;;;;;;;11.43;6.60;;;;;;;13.31;74.20;145525.55;1870688;76;22133;-65
2021/09/16 04:20:36;;;;;;;9.75;5.42;;;;;;;13.34;74.78;145533.08;1870591;76;22586;-63
2021/09/16 04:23:11;;;;;;;9.63;5.40;;;;;;;13.41;76.20;145550.69;1889930;76;22140;-66
2021/09/16 04:26:05;;;;;;;9.70;5.53;;;;;;;13.54;76.71;145582.11;1889930;76;22143;-65
2021/09/16 04:28:41;;;;;;;10.13;5.47;;;;;;;13.68;76.84;145618.53;1870556;76;22159;-64
2021/09/16 04:31:16;;;;;;;7.50;4.72;;;;;;;13.86;76.92;145662.55;1836528;76;28032;-62
2021/09/16 04:33:51;;;;;;;8.75;4.33;;;;;;;14.16;75.55;145734.25;1866762;76;22168;-62
2021/09/16 04:36:26;;;;;;;9.55;4.78;;;;;;;15.14;74.31;145975.91;1889976;76;22132;-64
2021/09/16 04:39:00;;;;;;;9.68;3.98;;;;;;;16.54;70.17;146321.02;1853251;76;22140;-63
2021/09/16 04:41:37;;;;;;;9.40;4.35;;;;;;;17.88;65.51;146651.37;1863764;76;22190;-61
2021/09/16 04:44:12;;;;;;;6.75;3.98;;;;;;;18.93;61.00;146910.12;1855519;76;22164;-61
2021/09/16 04:46:47;;;;;;;8.93;4.47;;;;;;;20.72;54.56;147351.02;1868771;76;22163;-61
2021/09/16 04:49:21;;;;;;;6.53;4.10;;;;;;;20.85;54.31;147383.88;1889926;76;22125;-61
2021/09/16 04:51:57;;;;;;;15.72;6.35;;;;;;;21.55;51.23;147555.84;1854527;76;27935;-61
2021/09/16 04:54:38;;;;;;;13.03;4.75;;;;;;;21.58;50.47;147563.47;1869838;76;22144;-64
2021/09/16 04:57:13;;;;;;;11.23;5.77;;;;;;;21.41;50.26;147522.97;1850410;76;28306;-62
2021/09/16 04:59:48;;;;;;;13.10;5.72;;;;;;;21.89;49.05;147641.86;1867134;76;22578;-62
2021/09/16 05:02:23;;;;;;;10.88;5.15;;;;;;;22.56;47.19;147806.38;1854735;76;22191;-62
2021/09/16 05:04:58;;;;;;;16.17;5.67;;;;;;;23.27;45.54;147981.11;1853967;76;22641;-63
2021/09/16 05:07:33;;;;;;;9.85;5.25;;;;;;;23.65;44.56;148074.81;1859216;76;22236;-64
2021/09/16 05:10:09;;;;;;;13.03;5.42;;;;;;;24.01;43.33;148166.03;1870497;76;22146;-65
2021/09/16 05:12:45;;;;;;;9.08;6.00;;;;;;;23.43;44.00;148021.61;1861252;76;22192;-60
2021/09/16 05:15:20;;;;;;;11.70;5.70;;;;;;;22.67;45.01;147834.25;1860757;76;22209;-59
2021/09/16 05:17:55;;;;;;;10.53;5.65;;;;;;;21.77;46.67;147610.25;1870620;76;22594;-62
2021/09/16 05:20:35;;;;;;;7.33;3.98;;;;;;;22.10;46.78;147693.72;1821734;77;22269;-61
2021/09/16 05:23:10;;;;;;;9.98;4.28;;;;;;;22.58;44.80;147811.44;1864441;76;22191;-65
2021/09/16 05:25:45;;;;;;;11.35;4.17;;;;;;;23.18;44.05;147960.86;1870214;76;22583;-60
2021/09/16 05:28:21;;;;;;;8.83;4.05;;;;;;;24.24;42.60;148221.78;1850757;76;28032;-63
2021/09/16 05:30:55;;;;;;;11.40;4.33;;;;;;;24.82;40.65;148366.28;1852080;76;22164;-62
2021/09/16 05:33:31;;;;;;;15.25;4.33;;;;;;;24.44;40.52;148272.45;1852432;76;22214;-65
2021/09/16 05:36:11;;;;;;;11.28;4.65;;;;;;;24.29;40.37;148234.45;1849662;76;22186;-65
2021/09/16 05:39:08;;;;;;;10.20;4.75;;;;;;;24.47;39.55;148278.84;1851733;76;22311;-64
2021/09/16 05:42:05;;;;;;;9.35;4.28;;;;;;;24.57;38.90;148302.92;1862583;75;22129;-64
2021/09/16 05:44:40;;;;;;;18.00;12.33;;;;;;;24.67;38.97;148329.53;1870315;76;22234;-65
2021/09/16 05:47:21;;;;;;;9.35;4.25;;;;;;;25.33;38.30;148491.83;1879938;76;22195;-63
2021/09/16 05:50:03;;;;;;;8.63;3.80;;;;;;;25.18;37.16;148455.06;1850580;77;22650;-62
2021/09/16 05:52:38;;;;;;;10.13;4.33;;;;;;;24.57;38.70;148304.19;1855667;76;22212;-65
2021/09/16 05:55:19;;;;;;;7.80;3.42;;;;;;;24.24;37.45;148221.78;1869478;76;22181;-62
2021/09/16 05:57:56;;;;;;;8.48;3.52;;;;;;;24.07;38.12;148180.00;1855461;76;22251;-64
2021/09/16 06:00:31;;;;;;;9.48;3.98;;;;;;;24.05;38.76;148176.19;1851232;72;28151;-62
2021/09/16 06:03:12;;;;;;;13.20;5.60;;;;;;;24.46;38.46;148277.59;1852578;76;22228;-64
2021/09/16 06:05:47;;;;;;;11.12;5.35;;;;;;;25.42;36.43;148513.41;1870457;76;22141;-66
2021/09/16 06:08:22;;;;;;;6.60;3.47;;;;;;;25.72;35.82;148589.48;1870399;76;22139;-63
2021/09/16 06:10:57;;;;;;;8.68;3.83;;;;;;;26.28;33.43;148726.48;1877033;75;22647;-61
2021/09/16 06:13:32;;;;;;;7.85;2.95;;;;;;;26.78;32.15;148850.89;1856442;76;22759;-60
2021/09/16 06:16:07;;;;;;;8.98;3.45;;;;;;;27.06;30.96;148920.69;1889414;76;22755;-61
2021/09/16 06:18:43;;;;;;;8.15;3.62;;;;;;;27.48;31.07;149026.11;1854086;76;28373;-60
2021/09/16 06:21:18;;;;;;;10.48;3.15;;;;;;;28.03;29.85;149162.00;1859195;74;22179;-62
2021/09/16 06:25:16;;;;;;;7.05;3.70;;;;;;;29.53;27.56;149534.38;1828494;74;23092;-65
2021/09/16 06:27:57;;;;;;;5.22;2.40;;;;;;;29.76;26.72;149591.63;1826002;77;22148;-64
2021/09/16 06:30:51;;;;;;;8.03;2.85;;;;;;;29.43;27.28;149510.22;1826633;77;22097;-63
2021/09/16 06:33:44;;;;;;;11.45;5.72;;;;;;;29.61;26.61;149554.70;1834777;77;22069;-62
2021/09/16 06:36:25;;;;;;;9.83;3.85;;;;;;;29.31;26.67;149478.44;1834059;77;22239;-65
2021/09/16 06:39:20;;;;;;;9.13;4.50;;;;;;;29.63;27.08;149558.55;1834616;77;22108;-63
2021/09/16 06:41:56;;;;;;;8.05;3.20;;;;;;;31.51;25.55;150025.55;1853283;77;22563;-64
2021/09/16 06:44:34;;;;;;;7.42;2.60;;;;;;;33.29;23.43;150470.08;1834838;77;22073;-66
2021/09/16 06:47:08;;;;;;;9.05;3.00;;;;;;;34.57;22.20;150787.50;1853384;77;22096;-65
2021/09/16 06:49:48;;;;;;;9.45;2.98;;;;;;;34.84;21.38;150855.14;1834790;77;22089;-64
2021/09/16 06:52:23;;;;;;;6.60;2.80;;;;;;;35.41;20.64;150996.73;1834819;77;22160;-67
2021/09/16 06:55:05;;;;;;;8.73;3.30;;;;;;;35.16;20.29;150935.55;1833993;77;22220;-64
2021/09/16 06:57:59;;;;;;;9.78;3.40;;;;;;;35.41;19.78;150996.73;1853389;77;22093;-66
2021/09/16 07:00:59;;;;;;;7.15;2.62;;;;;;;35.75;19.48;151080.95;1853391;77;22187;-61
2021/09/16 07:03:34;;;;;;;7.45;2.90;;;;;;;35.30;19.98;150969.95;1834850;77;22093;-67
2021/09/16 07:06:09;;;;;;;8.18;3.77;;;;;;;35.10;19.47;150918.95;1834817;77;22160;-65
2021/09/16 07:08:43;;;;;;;7.00;3.00;;;;;;;34.34;20.27;150731.41;1833951;77;22172;-64
2021/09/16 07:11:19;;;;;;;7.53;2.62;;;;;;;33.84;20.65;150606.48;1834819;77;22082;-65
2021/09/16 07:14:15;;;;;;;5.67;2.70;;;;;;;34.13;20.68;150679.16;1852722;77;22616;-65
2021/09/16 07:16:49;;;;;;;7.10;3.05;;;;;;;35.46;19.68;151009.48;1834252;77;22680;-64
2021/09/16 07:19:27;;;;;;;6.92;2.87;;;;;;;36.84;18.58;151354.17;1834468;77;22073;-65
2021/09/16 07:22:09;;;;;;;10.43;3.92;;;;;;;37.66;17.84;151557.27;1853369;77;22166;-64
2021/09/16 07:25:04;;;;;;;6.53;2.50;;;;;;;38.36;17.14;151732.27;1834542;77;22102;-64
2021/09/16 07:27:58;;;;;;;6.90;2.70;;;;;;;38.95;15.84;151880.56;1852832;77;22172;-65
2021/09/16 07:30:33;;;;;;;9.88;2.62;;;;;;;39.15;15.98;151930.41;1834239;77;22149;-61
2021/09/16 07:33:14;;;;;;;9.98;3.12;;;;;;;39.70;15.50;152067.23;1833348;77;22141;-61
2021/09/16 07:35:55;;;;;;;6.25;2.05;;;;;;;39.52;15.31;152022.50;1833777;77;22776;-62
2021/09/16 07:38:35;;;;;;;4.37;2.22;;;;;;;38.88;15.24;151862.66;1833689;77;22150;-62
2021/09/16 07:41:17;;;;;;;6.90;2.33;;;;;;;38.23;15.69;151701.59;1833500;77;22137;-62
2021/09/16 07:44:11;;;;;;;5.53;2.50;;;;;;;37.78;16.24;151589.19;1834035;77;22105;-62
2021/09/16 07:47:04;;;;;;;12.03;3.50;;;;;;;36.81;17.01;151346.47;1834306;77;22077;-63
2021/09/16 07:49:45;;;;;;;15.93;10.53;;;;;;;36.34;17.87;151227.77;1852938;77;22100;-63
2021/09/16 07:52:26;;;;;;;22.70;16.65;;;;;;;36.59;18.28;151291.63;1842615;77;22172;-63
2021/09/16 07:55:27;;;;;;;7.85;4.47;;;;;;;37.76;17.62;151584.08;1852955;77;22184;-61
2021/09/16 07:58:27;;;;;;;17.07;14.25;;;;;;;37.83;17.62;151600.66;1833510;77;22759;-61
2021/09/16 08:01:21;;;;;;;10.30;4.85;;;;;;;37.56;17.93;151534.27;1834413;77;22101;-64
2021/09/16 08:04:15;;;;;;;12.88;7.12;;;;;;;37.86;17.62;151608.34;1852815;77;22652;-61
2021/09/16 08:06:55;;;;;;;10.68;3.90;;;;;;;37.27;18.16;151461.41;1833532;77;22177;-63
2021/09/16 08:09:36;;;;;;;6.72;3.02;;;;;;;37.06;18.32;151407.81;1833794;77;22553;-59
2021/09/16 08:12:11;;;;;;;5.22;3.15;;;;;;;36.56;18.54;151282.66;1827930;77;22135;-63
2021/09/16 08:14:46;;;;;;;12.63;3.80;;;;;;;35.91;18.68;151121.81;1851548;77;22105;-66
2021/09/16 08:17:39;;;;;;;10.15;3.15;;;;;;;35.08;19.52;150913.78;1825606;77;22031;-64
2021/09/16 08:20:14;;;;;;;6.28;3.15;;;;;;;34.23;20.39;150703.38;1852931;77;22168;-63
2021/09/16 08:22:55;;;;;;;7.72;3.27;;;;;;;33.44;20.77;150505.77;1833352;77;22251;-61
2021/09/16 08:25:50;;;;;;;8.43;4.50;;;;;;;33.11;21.28;150422.97;1852735;77;22139;-63
2021/09/16 08:28:25;;;;;;;11.18;6.70;;;;;;;33.23;21.58;150454.81;1813121;77;27999;-64
2021/09/16 08:31:07;;;;;;;38.53;34.48;;;;;;;33.49;21.26;150519.77;1815473;77;22110;-63
2021/09/16 08:34:01;;;;;;;8.75;4.22;;;;;;;33.20;21.25;150445.88;1802903;77;28244;-62
2021/09/16 08:36:36;;;;;;;14.98;9.75;;;;;;;32.52;21.69;150276.45;1819352;77;22187;-65
2021/09/16 08:39:30;;;;;;;7.70;3.27;;;;;;;31.63;22.39;150054.84;1822739;77;22180;-60
2021/09/16 08:42:06;;;;;;;7.33;2.72;;;;;;;31.20;22.76;149949.16;1811794;77;22108;-65
2021/09/16 08:44:59;;;;;;;5.28;2.87;;;;;;;30.53;23.46;149782.42;1834531;77;22106;-64
2021/09/16 08:47:37;;;;;;;7.60;3.05;;;;;;;29.74;24.14;149585.28;1852976;77;22112;-62
2021/09/16 08:50:14;;;;;;;8.85;3.20;;;;;;;29.20;24.71;149453.03;1853001;77;22175;-64
2021/09/16 08:53:08;;;;;;;6.33;2.90;;;;;;;28.21;25.60;149206.45;1853054;77;20601;-61
2021/09/16 08:55:45;;;;;;;11.00;2.80;;;;;;;27.03;27.01;148913.08;1834735;77;22235;-62
2021/09/16 08:58:46;;;;;;;10.72;2.80;;;;;;;26.63;27.94;148815.34;1853102;77;22198;-63
2021/09/16 09:01:23;;;;;;;6.03;2.60;;;;;;;27.00;27.58;148906.73;1834672;77;22098;-68
2021/09/16 09:04:18;;;;;;;11.65;7.95;;;;;;;27.16;27.53;148944.81;1829097;77;22292;-60
2021/09/16 09:07:05;;;;;;;8.80;3.25;;;;;;;27.01;27.29;148908.00;1826134;77;22127;-67
2021/09/16 09:10:00;;;;;;;9.63;3.55;;;;;;;26.97;27.54;148899.13;1820984;77;20154;-60
2021/09/16 09:12:56;;;;;;;8.73;4.80;;;;;;;26.26;28.58;148721.45;1815724;77;22295;-60
2021/09/16 09:16:06;;;;;;;6.12;2.67;;;;;;;25.87;29.86;148625.02;1852896;77;22286;-66
2021/09/16 09:18:47;;;;;;;4.95;2.40;;;;;;;25.78;29.27;148604.69;1833015;77;22597;-61
2021/09/16 09:21:24;;;;;;;8.35;3.00;;;;;;;25.60;29.54;148559.05;1834456;77;22209;-66
2021/09/16 09:24:38;;;;;;;12.88;3.27;;;;;;;25.48;30.07;148528.61;1852745;77;22598;-60
2021/09/16 09:27:23;;;;;;;8.95;2.62;;;;;;;25.51;29.81;148536.20;1834584;77;22160;-61
2021/09/16 09:30:21;;;;;;;7.92;3.60;;;;;;;25.68;29.73;148579.33;1834594;77;22140;-61
2021/09/16 09:33:19;;;;;;;12.30;3.27;;;;;;;25.49;30.17;148531.13;1853041;77;22167;-67
2021/09/16 09:35:56;;;;;;;11.03;3.02;;;;;;;25.17;30.92;148451.28;1819618;77;22203;-60
2021/09/16 09:38:58;;;;;;;11.03;3.65;;;;;;;24.98;31.76;148404.31;1834170;77;22248;-65
2021/09/16 09:41:53;;;;;;;10.80;3.30;;;;;;;24.39;31.80;148258.53;1824144;77;22618;-64
2021/09/16 09:45:09;;;;;;;9.38;3.20;;;;;;;23.58;33.33;148058.34;1829252;77;22668;-66
2021/09/16 09:47:50;;;;;;;7.40;3.10;;;;;;;23.12;34.18;147945.64;1826058;77;22259;-63
2021/09/16 09:50:52;;;;;;;8.50;3.27;;;;;;;22.93;34.24;147897.53;1833457;77;22227;-64
2021/09/16 09:53:52;;;;;;;9.20;3.50;;;;;;;22.64;34.89;147825.34;1832993;77;22583;-62
2021/09/16 09:56:27;;;;;;;17.12;10.38;;;;;;;22.41;35.34;147768.41;1831547;77;22267;-59
2021/09/16 09:59:30;;;;;;;7.53;4.15;;;;;;;22.23;36.15;147725.39;1826359;77;22271;-65
2021/09/16 10:02:05;;;;;;;11.10;4.58;;;;;;;22.25;36.71;147730.45;1834567;77;22586;-63
2021/09/16 10:05:00;;;;;;;9.25;4.03;;;;;;;22.03;36.79;147676.03;1834515;77;22566;-66
2021/09/16 10:07:40;;;;;;;10.32;3.55;;;;;;;21.85;36.93;147631.77;1834289;77;22590;-63
2021/09/16 10:10:17;;;;;;;7.55;3.00;;;;;;;21.80;37.14;147617.81;1819755;77;22285;-58
2021/09/16 10:12:54;;;;;;;13.53;3.70;;;;;;;21.88;37.44;147639.34;1834053;77;22183;-59
2021/09/16 10:15:54;;;;;;;9.93;4.72;;;;;;;22.18;37.57;147712.69;1842353;77;22250;-63
2021/09/16 10:18:49;;;;;;;12.10;5.45;;;;;;;22.45;37.67;147779.81;1837107;77;38737;-65
2021/09/16 10:21:44;;;;;;;9.03;5.53;;;;;;;22.68;37.29;147836.75;1834026;77;22605;-62
2021/09/16 10:24:20;;;;;;;15.23;10.10;;;;;;;22.85;37.09;147877.28;1821911;77;28135;-60
2021/09/16 10:26:54;;;;;;;16.05;8.95;;;;;;;23.07;37.33;147932.98;1817525;77;22240;-62
2021/09/16 10:29:36;;;;;;;7.22;4.35;;;;;;;23.16;37.02;147955.78;1832659;77;22198;-60
2021/09/16 10:32:22;;;;;;;7.37;3.20;;;;;;;23.19;36.99;147963.38;1837028;77;22198;-60
2021/09/16 10:35:20;;;;;;;9.73;3.52;;;;;;;23.28;37.03;147983.63;1815623;77;22710;-64
2021/09/16 10:38:29;;;;;;;6.92;3.83;;;;;;;23.36;37.01;148003.92;1829989;77;22255;-63
2021/09/16 10:41:34;;;;;;;7.45;3.17;;;;;;;23.45;36.93;148026.69;1833671;77;22201;-64
2021/09/16 10:44:21;;;;;;;10.80;5.00;;;;;;;23.57;36.84;148057.08;1852825;77;22160;-63
2021/09/16 10:47:20;;;;;;;8.63;4.10;;;;;;;23.74;36.75;148098.94;1852995;77;22623;-60
2021/09/16 10:49:55;;;;;;;11.70;4.65;;;;;;;23.81;36.08;148116.67;1852885;77;22160;-64
2021/09/16 10:52:31;;;;;;;6.60;3.62;;;;;;;23.82;35.92;148119.19;1834130;77;22219;-63
2021/09/16 10:55:10;;;;;;;8.78;4.75;;;;;;;23.90;36.77;148138.19;1825987;77;22216;-64
2021/09/16 10:57:46;;;;;;;6.92;3.20;;;;;;;23.96;37.16;148152.11;1829464;77;22168;-63
2021/09/16 11:00:23;;;;;;;7.53;4.08;;;;;;;24.03;36.50;148171.11;1845334;77;22175;-64
2021/09/16 11:03:03;;;;;;;9.93;3.27;;;;;;;24.22;36.68;148218.00;1834241;77;22187;-66
2021/09/16 11:05:59;;;;;;;5.92;3.17;;;;;;;24.29;35.62;148234.45;1852786;77;23332;-64
2021/09/16 11:09:04;;;;;;;7.08;2.55;;;;;;;24.28;35.58;148231.94;1834132;77;22239;-64
2021/09/16 11:12:02;;;;;;;9.95;2.83;;;;;;;24.25;35.83;148225.59;1833969;77;22488;-64
2021/09/16 11:14:47;;;;;;;6.35;3.27;;;;;;;24.41;35.94;148264.87;1834378;77;22156;-65
2021/09/16 11:17:49;;;;;;;5.83;2.72;;;;;;;24.62;35.89;148315.59;1852951;77;22277;-63
2021/09/16 11:20:45;;;;;;;8.50;2.72;;;;;;;24.73;35.18;148343.50;1852773;77;22653;-66
2021/09/16 11:24:07;;;;;;;7.87;3.62;;;;;;;24.82;34.99;148366.28;1826239;77;22764;-62
2021/09/16 11:26:48;;;;;;;7.25;2.87;;;;;;;24.97;34.89;148401.78;1852947;77;22215;-62
2021/09/16 11:29:24;;;;;;;7.90;2.65;;;;;;;24.87;34.95;148378.97;1834332;77;22167;-63
2021/09/16 11:32:04;;;;;;;4.60;1.90;;;;;;;24.76;35.10;148351.09;1853088;77;22215;-63
2021/09/16 11:35:06;;;;;;;7.37;2.17;;;;;;;24.83;35.06;148368.84;1834408;77;22230;-64
2021/09/16 11:38:02;;;;;;;8.15;2.98;;;;;;;24.85;35.40;148373.88;1878883;76;22248;-62
2021/09/16 11:40:40;;;;;;;8.55;3.02;;;;;;;24.96;34.19;148400.53;1834657;77;22590;-60
2021/09/16 11:43:20;;;;;;;9.55;3.62;;;;;;;24.82;34.74;148366.28;1833867;77;22647;-65
2021/09/16 11:45:55;;;;;;;8.70;3.50;;;;;;;24.83;35.12;148367.55;1834442;77;22236;-63
2021/09/16 11:48:48;;;;;;;5.97;2.80;;;;;;;25.05;34.72;148422.06;1852953;77;22627;-62
2021/09/16 11:51:53;;;;;;;9.13;3.30;;;;;;;25.02;34.56;148414.47;1834161;77;22173;-61
2021/09/16 11:54:33;;;;;;;5.87;2.60;;;;;;;24.61;34.78;148313.08;1853061;77;22167;-63
2021/09/16 11:57:09;;;;;;;7.12;2.60;;;;;;;24.12;35.68;148192.67;1837152;77;28328;-62
2021/09/16 12:00:29;;;;;;;4.25;2.40;;;;;;;23.79;36.13;148110.34;1852805;77;22191;-65
2021/09/16 12:03:07;;;;;;;7.35;2.37;;;;;;;23.62;36.72;148068.48;1834468;77;22550;-63
2021/09/16 12:06:16;;;;;;;6.50;2.60;;;;;;;23.73;37.03;148095.13;1833701;77;22641;-62
2021/09/16 12:09:13;;;;;;;5.85;2.50;;;;;;;24.02;36.76;148167.34;1853137;77;22187;-62
2021/09/16 12:11:49;;;;;;;6.28;2.50;;;;;;;24.38;35.78;148257.28;1853105;77;22153;-62
2021/09/16 12:14:50;;;;;;;5.17;2.10;;;;;;;24.80;35.15;148361.20;1834430;77;22196;-65
2021/09/16 12:17:25;;;;;;;5.70;2.02;;;;;;;24.80;34.11;148361.20;1834305;77;22626;-64
2021/09/16 12:20:19;;;;;;;3.92;2.20;;;;;;;24.95;34.04;148396.72;1834196;77;22208;-61
2021/09/16 12:22:55;;;;;;;4.55;2.47;;;;;;;25.15;33.94;148446.16;1834035;77;22226;-62
2021/09/16 12:26:02;;;;;;;5.25;2.12;;;;;;;25.04;33.75;148419.55;1834344;77;22184;-62
2021/09/16 12:29:01;;;;;;;6.28;2.60;;;;;;;25.02;33.55;148415.72;1853368;77;22195;-61
2021/09/16 12:32:04;;;;;;;4.92;2.20;;;;;;;25.05;33.65;148422.06;1853163;77;22599;-65
2021/09/16 12:34:43;;;;;;;5.03;2.50;;;;;;;25.18;33.80;148453.80;1834453;77;22209;-63
2021/09/16 12:37:44;;;;;;;4.22;2.33;;;;;;;25.38;33.60;148503.25;1833765;77;22188;-63